createdAt,value
2022-11-11T00:01:05.306Z,14.67
2022-11-11T00:06:25.348Z,12.60
2022-11-11T00:11:45.494Z,11.50
2022-11-11T00:17:24.692Z,16.23
2022-11-11T00:23:03.603Z,13.50
2022-11-11T00:28:24.364Z,15.13
2022-11-11T00:33:44.926Z,15.37
2022-11-11T00:39:05.343Z,15.07
2022-11-11T00:44:27.120Z,18.00
2022-11-11T00:50:05.934Z,14.63
2022-11-11T00:55:26.461Z,11.83
2022-11-11T01:00:47.418Z,14.57
2022-11-11T01:06:09.845Z,19.10
2022-11-11T01:11:30.375Z,16.27
2022-11-11T01:16:50.997Z,15.97
2022-11-11T01:22:11.469Z,16.17
2022-11-11T01:27:34.356Z,18.00
2022-11-11T01:32:54.788Z,14.30
2022-11-11T01:38:15.422Z,18.10
2022-11-11T01:43:35.781Z,17.47
2022-11-11T01:49:21.743Z,16.57
2022-11-11T01:54:42.423Z,16.80
2022-11-11T02:00:07.942Z,17.30
2022-11-11T02:05:44.851Z,14.17
2022-11-11T02:11:07.287Z,13.03
2022-11-11T02:16:28.718Z,14.20
2022-11-11T02:21:58.407Z,13.67
2022-11-11T02:27:19.302Z,13.73
2022-11-11T02:32:39.679Z,11.10
2022-11-11T02:38:01.699Z,10.83
2022-11-11T02:43:22.832Z,13.30
2022-11-11T02:48:43.661Z,11.53
2022-11-11T02:54:04.087Z,9.37
2022-11-11T02:59:24.370Z,15.60
2022-11-11T03:04:44.933Z,10.87
2022-11-11T03:10:05.598Z,12.83
2022-11-11T03:15:25.794Z,11.73
2022-11-11T03:21:35.576Z,13.33
2022-11-11T03:26:44.932Z,16.57
2022-11-11T03:32:06.666Z,11.37
2022-11-11T03:37:45.856Z,10.13
2022-11-11T03:43:06.797Z,12.77
2022-11-11T03:48:29.616Z,12.30
2022-11-11T03:53:49.946Z,10.57
2022-11-11T03:59:10.354Z,11.40
2022-11-11T04:04:49.514Z,11.00
2022-11-11T04:10:25.139Z,12.03
2022-11-11T04:16:04.189Z,11.63
2022-11-11T04:21:43.287Z,9.33
2022-11-11T04:27:06.758Z,12.97
2022-11-11T04:32:36.051Z,10.17
2022-11-11T04:38:16.259Z,9.00
2022-11-11T04:43:56.570Z,10.80
2022-11-11T04:49:17.245Z,11.57
2022-11-11T04:54:57.574Z,18.13
2022-11-11T05:00:19.051Z,11.03
2022-11-11T05:05:58.301Z,9.37
2022-11-11T05:11:19.760Z,8.50
2022-11-11T05:17:01.551Z,10.00
2022-11-11T05:22:26.663Z,11.63
2022-11-11T05:27:46.935Z,10.63
2022-11-11T05:33:07.681Z,10.50
2022-11-11T05:38:30.095Z,10.77
2022-11-11T05:43:50.263Z,9.33
2022-11-11T05:49:16.734Z,15.17
2022-11-11T05:54:37.146Z,15.73
2022-11-11T05:59:58.995Z,10.53
2022-11-11T06:05:19.011Z,10.73
2022-11-11T06:10:39.395Z,13.20
2022-11-11T06:16:00.709Z,12.87
2022-11-11T06:21:21.115Z,13.17
2022-11-11T06:26:41.759Z,15.93
2022-11-11T06:32:02.234Z,14.93
2022-11-11T06:37:22.721Z,13.13
2022-11-11T06:42:43.275Z,17.03
2022-11-11T06:48:05.071Z,17.00
2022-11-11T06:53:25.473Z,12.77
2022-11-11T06:58:46.519Z,16.70
2022-11-11T07:04:07.025Z,20.73
2022-11-11T07:09:28.776Z,16.33
2022-11-11T07:14:49.407Z,15.90
2022-11-11T07:20:10.571Z,15.70
2022-11-11T07:25:31.303Z,16.03
2022-11-11T07:30:51.632Z,20.43
2022-11-11T07:36:15.224Z,16.37
2022-11-11T07:41:35.683Z,17.93
2022-11-11T07:46:56.319Z,17.67
2022-11-11T07:52:16.949Z,17.90
2022-11-11T07:57:37.810Z,16.00
2022-11-11T08:02:59.201Z,16.33
2022-11-11T08:08:25.480Z,14.07
2022-11-11T08:13:46.695Z,18.03
2022-11-11T08:19:07.301Z,12.60
2022-11-11T08:30:09.826Z,13.03
2022-11-11T08:35:31.347Z,13.53
2022-11-11T08:40:52.623Z,14.43
2022-11-11T08:46:13.003Z,15.03
2022-11-11T08:51:41.895Z,10.47
2022-11-11T08:57:04.210Z,11.57
2022-11-11T09:02:24.717Z,13.83
2022-11-11T09:07:45.092Z,10.50
2022-11-11T09:13:06.063Z,9.67
2022-11-11T09:18:27.498Z,11.67
2022-11-11T09:23:48.637Z,6.50
2022-11-11T09:29:09.155Z,6.77
2022-11-11T09:34:29.732Z,6.30
2022-11-11T09:39:50.434Z,8.93
2022-11-11T09:45:29.465Z,7.90
2022-11-11T09:50:54.946Z,7.27
2022-11-11T09:56:35.476Z,4.70
2022-11-11T10:01:58.442Z,5.10
2022-11-11T10:07:27.895Z,4.23
2022-11-11T10:12:55.822Z,6.07
2022-11-11T10:18:42.327Z,6.22
2022-11-11T10:24:11.218Z,4.45
2022-11-11T10:29:44.481Z,3.95
2022-11-11T10:35:20.078Z,3.50
2022-11-11T10:40:56.002Z,2.92
2022-11-11T10:46:27.135Z,2.70
2022-11-11T10:51:52.972Z,1.77
2022-11-11T10:57:38.643Z,2.95
2022-11-11T11:03:19.486Z,2.17
2022-11-11T11:08:49.657Z,1.83
2022-11-11T11:14:19.623Z,2.47
2022-11-11T11:19:43.099Z,1.90
2022-11-11T11:25:13.250Z,2.10
2022-11-11T11:30:33.947Z,4.10
2022-11-11T11:35:54.436Z,1.80
2022-11-11T11:41:15.019Z,2.53
2022-11-11T11:46:35.167Z,3.15
2022-11-11T11:52:18.508Z,3.90
2022-11-11T11:57:53.175Z,2.05
2022-11-11T12:03:25.751Z,5.82
2022-11-11T12:08:51.834Z,1.42
2022-11-11T12:14:27.261Z,2.70
2022-11-11T12:19:57.735Z,2.42
2022-11-11T12:25:27.223Z,2.25
2022-11-11T12:31:05.887Z,2.30
2022-11-11T12:36:51.438Z,1.92
2022-11-11T12:42:32.014Z,2.88
2022-11-11T12:48:03.396Z,3.78
2022-11-11T12:53:51.859Z,3.60
2022-11-11T12:59:42.313Z,8.43
2022-11-11T13:05:26.126Z,4.68
2022-11-11T13:11:13.988Z,3.53
2022-11-11T13:16:34.315Z,2.63
2022-11-11T13:21:59.072Z,2.22
2022-11-11T13:27:31.780Z,2.85
2022-11-11T13:32:58.947Z,1.60
2022-11-11T13:38:47.342Z,3.47
2022-11-11T13:44:09.834Z,2.65
2022-11-11T13:49:38.106Z,5.20
2022-11-11T13:55:02.451Z,1.42
2022-11-11T14:00:22.684Z,2.47
2022-11-11T14:05:44.023Z,3.97
2022-11-11T14:11:04.331Z,2.40
2022-11-11T14:16:36.435Z,4.22
2022-11-11T14:21:59.850Z,2.38
2022-11-11T14:27:27.053Z,2.25
2022-11-11T14:33:21.162Z,1.60
2022-11-11T14:39:06.751Z,3.83
2022-11-11T14:44:29.976Z,2.53
2022-11-11T14:49:55.634Z,3.40
2022-11-11T14:55:18.419Z,3.70
2022-11-11T15:01:07.126Z,3.03
2022-11-11T15:06:41.611Z,3.57
2022-11-11T15:12:08.089Z,4.30
2022-11-11T15:17:42.612Z,2.43
2022-11-11T15:23:02.692Z,3.33
2022-11-11T15:28:42.036Z,4.30
2022-11-11T15:34:33.163Z,4.87
2022-11-11T15:39:57.495Z,2.47
2022-11-11T15:45:17.759Z,3.40
2022-11-11T15:50:38.083Z,4.30
2022-11-11T15:56:00.646Z,4.10
2022-11-11T16:01:25.795Z,5.00
2022-11-11T16:06:47.245Z,6.53
2022-11-11T16:12:11.636Z,7.50
2022-11-11T16:17:38.966Z,8.67
2022-11-11T16:23:02.726Z,11.10
2022-11-11T16:28:23.239Z,11.10
2022-11-11T16:33:43.452Z,7.47
2022-11-11T16:39:20.799Z,8.67
2022-11-11T16:45:01.263Z,8.70
2022-11-11T16:50:27.469Z,50.57
2022-11-11T16:55:47.584Z,21.80
2022-11-11T17:01:08.717Z,24.53
2022-11-11T17:06:49.571Z,24.40
2022-11-11T17:12:10.271Z,18.47
2022-11-11T17:17:31.039Z,14.43
2022-11-11T17:22:57.707Z,18.73
2022-11-11T17:28:19.310Z,14.57
2022-11-11T17:33:39.847Z,17.90
2022-11-11T17:39:00.330Z,29.10
2022-11-11T17:44:20.859Z,27.03
2022-11-11T17:49:56.169Z,26.40
2022-11-11T17:55:17.624Z,19.27
2022-11-11T18:00:37.927Z,20.77
2022-11-11T18:05:58.324Z,14.43
2022-11-11T18:11:18.626Z,19.77
2022-11-11T18:16:39.259Z,17.83
2022-11-11T18:21:59.767Z,15.37
2022-11-11T18:27:20.397Z,19.93
2022-11-11T18:32:40.863Z,22.10
2022-11-11T18:38:01.358Z,21.07
2022-11-11T18:43:22.155Z,18.37
2022-11-11T18:48:43.368Z,17.43
2022-11-11T18:54:03.779Z,18.67
2022-11-11T18:59:24.037Z,15.43
2022-11-11T19:04:44.637Z,17.70
2022-11-11T19:10:05.490Z,15.93
2022-11-11T19:15:25.966Z,17.47
2022-11-11T19:20:46.584Z,16.20
2022-11-11T19:26:07.957Z,21.47
2022-11-11T19:31:29.903Z,18.00
2022-11-11T19:36:50.404Z,17.03
2022-11-11T19:42:10.883Z,17.23
2022-11-11T19:47:31.302Z,20.47
2022-11-11T19:52:51.727Z,18.33
2022-11-11T19:58:12.286Z,17.00
2022-11-11T20:03:34.625Z,19.63
2022-11-11T20:08:56.332Z,15.93
2022-11-11T20:14:16.996Z,16.57
2022-11-11T20:19:37.540Z,17.23
2022-11-11T20:24:58.116Z,16.77
2022-11-11T20:30:18.878Z,15.27
2022-11-11T20:35:39.772Z,15.80
2022-11-11T20:41:04.896Z,16.37
2022-11-11T20:46:25.296Z,15.27
2022-11-11T20:51:45.671Z,17.70
2022-11-11T20:57:06.327Z,21.60
2022-11-11T21:02:27.302Z,16.00
2022-11-11T21:07:50.746Z,20.47
2022-11-11T21:13:11.223Z,16.43
2022-11-11T21:18:31.876Z,19.33
2022-11-11T21:24:01.668Z,16.93
2022-11-11T21:29:22.004Z,12.20
2022-11-11T21:34:42.655Z,14.80
2022-11-11T21:40:03.323Z,12.57
2022-11-11T21:45:23.584Z,12.77
2022-11-11T21:50:44.040Z,12.57
2022-11-11T21:56:07.083Z,13.70
2022-11-11T22:01:30.785Z,11.60
2022-11-11T22:06:51.356Z,14.80
2022-11-11T22:12:11.857Z,9.73
2022-11-11T22:17:32.412Z,11.23
2022-11-11T22:22:53.072Z,11.43
2022-11-11T22:28:13.731Z,10.03
2022-11-11T22:33:35.068Z,16.23
2022-11-11T22:38:55.771Z,15.80
2022-11-11T22:44:16.548Z,16.33
2022-11-11T22:49:37.187Z,13.10
2022-11-11T22:54:57.823Z,12.73
2022-11-11T23:00:18.553Z,12.83
2022-11-11T23:05:39.079Z,12.70
2022-11-11T23:11:13.494Z,13.27
2022-11-11T23:16:34.672Z,14.27
2022-11-11T23:21:54.731Z,16.03
2022-11-11T23:27:15.277Z,14.20
2022-11-11T23:32:35.729Z,13.73
2022-11-11T23:37:56.348Z,14.40
2022-11-11T23:43:16.872Z,13.27
2022-11-11T23:48:37.408Z,15.23
2022-11-11T23:53:58.093Z,17.83
2022-11-11T23:59:18.696Z,17.77
